Airport View

Enter AWOS ICAO identifier for current METAR.

ex. KFNL

KRHP 262215Z AUTO 24005KT 5SM RA SCT015 BKN021 OVC026 05/04 A2986 RMK AO2 P0002 T00520038

26 Feb 2020 22:22

Frequency: 119.675

Phone: 828-321-1049

Other Area AWOS: KDZJ - K1A5 - KMNV - K24A

TAF AMD KTYS 262124Z 2621/2718 26010KT P6SM VCSH FEW015 SCT035 BKN050 FM262300 27010G17KT P6SM BKN025 FM271600 28008KT P6SM FEW150